sensor_id;sensor_type;location;lat;lon;timestamp;pressure;altitude;pressure_sealevel;temperature;humidity
62418;BME280;48456;54.242;10.280;2023-02-17T00:00:13;101342.66;;;6.07;100.00
62418;BME280;48456;54.242;10.280;2023-02-17T00:02:40;101358.47;;;6.08;100.00
62418;BME280;48456;54.242;10.280;2023-02-17T00:05:06;101348.88;;;6.10;100.00
62418;BME280;48456;54.242;10.280;2023-02-17T00:07:33;101346.25;;;6.10;100.00
62418;BME280;48456;54.242;10.280;2023-02-17T00:09:59;101345.38;;;6.10;100.00
62418;BME280;48456;54.242;10.280;2023-02-17T00:12:26;101336.66;;;6.13;100.00
62418;BME280;48456;54.242;10.280;2023-02-17T00:14:52;101329.66;;;6.11;100.00
62418;BME280;48456;54.242;10.280;2023-02-17T00:17:18;101321.81;;;6.13;100.00
62418;BME280;48456;54.242;10.280;2023-02-17T00:19:45;101319.22;;;6.15;100.00
62418;BME280;48456;54.242;10.280;2023-02-17T00:22:11;101323.59;;;6.16;100.00
62418;BME280;48456;54.242;10.280;2023-02-17T00:24:38;101323.59;;;6.16;100.00
62418;BME280;48456;54.242;10.280;2023-02-17T00:27:04;101312.19;;;6.15;100.00
62418;BME280;48456;54.242;10.280;2023-02-17T00:29:31;101304.34;;;6.17;100.00
62418;BME280;48456;54.242;10.280;2023-02-17T00:31:58;101309.66;;;6.18;100.00
62418;BME280;48456;54.242;10.280;2023-02-17T00:34:24;101300.00;;;6.17;100.00
62418;BME280;48456;54.242;10.280;2023-02-17T00:36:53;101286.91;;;6.19;100.00
62418;BME280;48456;54.242;10.280;2023-02-17T00:39:19;101298.31;;;6.21;100.00
62418;BME280;48456;54.242;10.280;2023-02-17T00:41:45;101298.34;;;6.22;100.00
62418;BME280;48456;54.242;10.280;2023-02-17T00:44:14;101293.09;;;6.22;100.00
62418;BME280;48456;54.242;10.280;2023-02-17T00:46:41;101279.06;;;6.22;100.00
62418;BME280;48456;54.242;10.280;2023-02-17T00:49:07;101274.72;;;6.22;100.00
62418;BME280;48456;54.242;10.280;2023-02-17T00:51:34;101275.59;;;6.23;100.00
62418;BME280;48456;54.242;10.280;2023-02-17T00:54:01;101270.34;;;6.23;100.00
62418;BME280;48456;54.242;10.280;2023-02-17T00:56:27;101263.34;;;6.23;100.00
62418;BME280;48456;54.242;10.280;2023-02-17T00:58:53;101266.88;;;6.24;100.00
62418;BME280;48456;54.242;10.280;2023-02-17T01:01:19;101266.00;;;6.25;100.00
62418;BME280;48456;54.242;10.280;2023-02-17T01:03:46;101248.47;;;6.24;100.00
62418;BME280;48456;54.242;10.280;2023-02-17T01:06:16;101258.13;;;6.25;100.00
62418;BME280;48456;54.242;10.280;2023-02-17T01:08:44;101253.75;;;6.26;100.00
62418;BME280;48456;54.242;10.280;2023-02-17T01:11:16;101258.16;;;6.27;100.00
62418;BME280;48456;54.242;10.280;2023-02-17T01:13:42;101257.31;;;6.29;100.00
62418;BME280;48456;54.242;10.280;2023-02-17T01:16:31;101250.34;;;6.30;100.00
62418;BME280;48456;54.242;10.280;2023-02-17T01:18:55;101245.97;;;6.29;100.00
62418;BME280;48456;54.242;10.280;2023-02-17T01:21:24;101245.13;;;6.31;100.00
62418;BME280;48456;54.242;10.280;2023-02-17T01:23:52;101243.38;;;6.32;100.00
62418;BME280;48456;54.242;10.280;2023-02-17T01:26:19;101232.84;;;6.32;100.00
62418;BME280;48456;54.242;10.280;2023-02-17T01:28:46;101224.09;;;6.31;100.00
62418;BME280;48456;54.242;10.280;2023-02-17T01:31:13;101224.13;;;6.33;100.00
62418;BME280;48456;54.242;10.280;2023-02-17T01:33:40;101224.13;;;6.33;100.00
62418;BME280;48456;54.242;10.280;2023-02-17T01:36:08;101219.78;;;6.35;100.00
62418;BME280;48456;54.242;10.280;2023-02-17T01:38:35;101214.56;;;6.36;100.00
62418;BME280;48456;54.242;10.280;2023-02-17T01:41:02;101210.22;;;6.37;100.00
62418;BME280;48456;54.242;10.280;2023-02-17T01:43:29;101208.44;;;6.37;100.00
62418;BME280;48456;54.242;10.280;2023-02-17T01:45:56;101206.72;;;6.38;100.00
62418;BME280;48456;54.242;10.280;2023-02-17T01:48:42;101193.63;;;6.40;100.00
62418;BME280;48456;54.242;10.280;2023-02-17T01:51:12;101176.13;;;6.42;100.00
62418;BME280;48456;54.242;10.280;2023-02-17T01:56:08;101164.75;;;6.43;100.00
62418;BME280;48456;54.242;10.280;2023-02-17T01:58:36;101162.16;;;6.44;100.00
62418;BME280;48456;54.242;10.280;2023-02-17T02:01:04;101167.44;;;6.46;100.00
62418;BME280;48456;54.242;10.280;2023-02-17T02:03:31;101160.44;;;6.46;100.00
62418;BME280;48456;54.242;10.280;2023-02-17T02:05:59;101156.06;;;6.47;100.00
62418;BME280;48456;54.242;10.280;2023-02-17T02:08:27;101171.00;;;6.48;100.00
62418;BME280;48456;54.242;10.280;2023-02-17T02:10:55;101151.72;;;6.49;100.00
62418;BME280;48456;54.242;10.280;2023-02-17T02:13:21;101145.56;;;6.48;100.00
62418;BME280;48456;54.242;10.280;2023-02-17T02:16:00;101149.13;;;6.50;100.00
62418;BME280;48456;54.242;10.280;2023-02-17T02:18:43;101137.75;;;6.52;100.00
62418;BME280;48456;54.242;10.280;2023-02-17T02:34:08;101105.41;;;6.56;100.00
62418;BME280;48456;54.242;10.280;2023-02-17T02:36:37;101106.31;;;6.56;100.00
62418;BME280;48456;54.242;10.280;2023-02-17T02:39:11;101092.31;;;6.57;100.00
62418;BME280;48456;54.242;10.280;2023-02-17T02:41:40;101084.47;;;6.60;100.00
62418;BME280;48456;54.242;10.280;2023-02-17T02:44:09;101083.56;;;6.60;100.00
62418;BME280;48456;54.242;10.280;2023-02-17T02:46:37;101088.91;;;6.63;100.00
62418;BME280;48456;54.242;10.280;2023-02-17T02:49:04;101080.13;;;6.64;100.00
62418;BME280;48456;54.242;10.280;2023-02-17T02:54:45;101067.03;;;6.66;100.00
62418;BME280;48456;54.242;10.280;2023-02-17T02:57:36;101062.66;;;6.68;100.00
62418;BME280;48456;54.242;10.280;2023-02-17T03:00:10;101072.31;;;6.69;100.00
62418;BME280;48456;54.242;10.280;2023-02-17T03:02:45;101067.06;;;6.69;100.00
62418;BME280;48456;54.242;10.280;2023-02-17T03:07:44;101065.34;;;6.71;100.00
62418;BME280;48456;54.242;10.280;2023-02-17T03:10:13;101062.75;;;6.72;100.00
62418;BME280;48456;54.242;10.280;2023-02-17T03:12:39;101058.38;;;6.74;100.00
62418;BME280;48456;54.242;10.280;2023-02-17T03:15:11;101062.78;;;6.74;100.00
62418;BME280;48456;54.242;10.280;2023-02-17T03:17:39;101063.66;;;6.76;100.00
62418;BME280;48456;54.242;10.280;2023-02-17T03:20:06;101060.19;;;6.75;100.00
62418;BME280;48456;54.242;10.280;2023-02-17T03:22:37;101062.81;;;6.75;100.00
62418;BME280;48456;54.242;10.280;2023-02-17T03:25:06;101068.97;;;6.78;100.00
62418;BME280;48456;54.242;10.280;2023-02-17T03:27:32;101061.06;;;6.78;100.00
62418;BME280;48456;54.242;10.280;2023-02-17T03:29:58;101069.84;;;6.78;100.00
62418;BME280;48456;54.242;10.280;2023-02-17T03:32:25;101072.50;;;6.80;100.00
62418;BME280;48456;54.242;10.280;2023-02-17T03:34:51;101066.34;;;6.79;100.00
62418;BME280;48456;54.242;10.280;2023-02-17T03:37:18;101059.34;;;6.78;100.00
62418;BME280;48456;54.242;10.280;2023-02-17T03:39:44;101065.47;;;6.79;100.00
62418;BME280;48456;54.242;10.280;2023-02-17T03:42:11;101051.47;;;6.80;100.00
62418;BME280;48456;54.242;10.280;2023-02-17T03:44:37;101050.59;;;6.81;100.00
62418;BME280;48456;54.242;10.280;2023-02-17T03:47:03;101043.59;;;6.81;100.00
62418;BME280;48456;54.242;10.280;2023-02-17T03:49:29;101029.59;;;6.82;100.00
62418;BME280;48456;54.242;10.280;2023-02-17T03:51:56;101041.00;;;6.84;100.00
62418;BME280;48456;54.242;10.280;2023-02-17T03:54:23;101044.56;;;6.88;100.00
62418;BME280;48456;54.242;10.280;2023-02-17T03:56:49;101042.84;;;6.90;100.00
62418;BME280;48456;54.242;10.280;2023-02-17T03:59:16;101042.84;;;6.90;100.00
62418;BME280;48456;54.242;10.280;2023-02-17T04:01:42;101042.91;;;6.93;100.00
62418;BME280;48456;54.242;10.280;2023-02-17T04:04:08;101040.31;;;6.95;100.00
62418;BME280;48456;54.242;10.280;2023-02-17T04:06:35;101033.28;;;6.95;100.00
62418;BME280;48456;54.242;10.280;2023-02-17T04:09:01;101026.31;;;6.97;100.00
62418;BME280;48456;54.242;10.280;2023-02-17T04:11:28;101022.78;;;6.97;100.00
62418;BME280;48456;54.242;10.280;2023-02-17T04:13:54;101023.69;;;6.99;100.00
62418;BME280;48456;54.242;10.280;2023-02-17T04:16:20;101019.34;;;7.01;100.00
62418;BME280;48456;54.242;10.280;2023-02-17T04:18:47;101021.97;;;7.02;100.00
62418;BME280;48456;54.242;10.280;2023-02-17T04:21:13;101014.13;;;7.04;100.00
62418;BME280;48456;54.242;10.280;2023-02-17T04:23:40;101003.63;;;7.06;100.00
62418;BME280;48456;54.242;10.280;2023-02-17T04:26:06;100998.38;;;7.06;100.00
62418;BME280;48456;54.242;10.280;2023-02-17T04:28:34;101008.91;;;7.07;100.00
62418;BME280;48456;54.242;10.280;2023-02-17T04:31:04;101012.44;;;7.09;100.00
62418;BME280;48456;54.242;10.280;2023-02-17T04:33:31;101017.75;;;7.12;100.00
62418;BME280;48456;54.242;10.280;2023-02-17T04:35:57;100993.19;;;7.13;100.00
62418;BME280;48456;54.242;10.280;2023-02-17T04:38:27;100981.78;;;7.13;100.00
62418;BME280;48456;54.242;10.280;2023-02-17T04:40:54;100978.31;;;7.14;100.00
62418;BME280;48456;54.242;10.280;2023-02-17T04:43:21;100973.03;;;7.14;100.00
62418;BME280;48456;54.242;10.280;2023-02-17T04:45:48;100973.03;;;7.15;100.00
62418;BME280;48456;54.242;10.280;2023-02-17T04:48:14;100955.50;;;7.16;100.00
62418;BME280;48456;54.242;10.280;2023-02-17T04:50:41;100960.78;;;7.16;100.00
62418;BME280;48456;54.242;10.280;2023-02-17T04:53:07;100962.56;;;7.19;100.00
62418;BME280;48456;54.242;10.280;2023-02-17T04:55:33;100956.41;;;7.20;100.00
62418;BME280;48456;54.242;10.280;2023-02-17T04:58:00;100952.03;;;7.19;100.00
62418;BME280;48456;54.242;10.280;2023-02-17T05:00:26;100939.75;;;7.18;100.00
62418;BME280;48456;54.242;10.280;2023-02-17T05:02:52;100958.22;;;7.21;100.00
62418;BME280;48456;54.242;10.280;2023-02-17T05:05:19;100950.31;;;7.21;100.00
62418;BME280;48456;54.242;10.280;2023-02-17T05:07:46;100944.19;;;7.22;100.00
62418;BME280;48456;54.242;10.280;2023-02-17T05:10:17;100941.53;;;7.20;100.00
62418;BME280;48456;54.242;10.280;2023-02-17T05:12:44;100936.28;;;7.22;100.00
62418;BME280;48456;54.242;10.280;2023-02-17T05:15:10;100931.91;;;7.24;100.00
62418;BME280;48456;54.242;10.280;2023-02-17T05:17:37;100934.59;;;7.27;100.00
62418;BME280;48456;54.242;10.280;2023-02-17T05:20:04;100931.09;;;7.26;100.00
62418;BME280;48456;54.242;10.280;2023-02-17T05:22:31;100931.09;;;7.28;100.00
62418;BME280;48456;54.242;10.280;2023-02-17T05:24:57;100931.09;;;7.30;100.00
62418;BME280;48456;54.242;10.280;2023-02-17T05:27:23;100929.41;;;7.32;100.00
62418;BME280;48456;54.242;10.280;2023-02-17T05:29:50;100918.00;;;7.33;100.00
62418;BME280;48456;54.242;10.280;2023-02-17T05:32:17;100916.25;;;7.33;100.00
62418;BME280;48456;54.242;10.280;2023-02-17T05:34:43;100896.94;;;7.33;100.00
62418;BME280;48456;54.242;10.280;2023-02-17T05:37:09;100892.56;;;7.33;100.00
62418;BME280;48456;54.242;10.280;2023-02-17T05:39:36;100897.84;;;7.33;100.00
62418;BME280;48456;54.242;10.280;2023-02-17T05:42:02;100888.22;;;7.37;100.00
62418;BME280;48456;54.242;10.280;2023-02-17T05:44:28;100889.09;;;7.39;100.00
62418;BME280;48456;54.242;10.280;2023-02-17T05:46:55;100871.56;;;7.39;100.00
62418;BME280;48456;54.242;10.280;2023-02-17T05:49:21;100868.06;;;7.40;100.00
62418;BME280;48456;54.242;10.280;2023-02-17T05:51:48;100867.22;;;7.41;100.00
62418;BME280;48456;54.242;10.280;2023-02-17T05:54:14;100856.69;;;7.41;100.00
62418;BME280;48456;54.242;10.280;2023-02-17T05:56:40;100854.03;;;7.43;100.00
62418;BME280;48456;54.242;10.280;2023-02-17T05:59:06;100854.03;;;7.43;100.00
62418;BME280;48456;54.242;10.280;2023-02-17T06:01:33;100851.44;;;7.45;100.00
62418;BME280;48456;54.242;10.280;2023-02-17T06:04:02;100849.69;;;7.45;100.00
62418;BME280;48456;54.242;10.280;2023-02-17T06:06:29;100846.19;;;7.48;100.00
62418;BME280;48456;54.242;10.280;2023-02-17T06:08:55;100836.56;;;7.47;100.00
62418;BME280;48456;54.242;10.280;2023-02-17T06:11:21;100848.84;;;7.49;100.00
62418;BME280;48456;54.242;10.280;2023-02-17T06:13:48;100822.53;;;7.49;100.00
62418;BME280;48456;54.242;10.280;2023-02-17T06:16:14;100825.19;;;7.51;100.00
62418;BME280;48456;54.242;10.280;2023-02-17T06:18:41;100830.47;;;7.54;100.00
62418;BME280;48456;54.242;10.280;2023-02-17T06:21:07;100823.44;;;7.54;100.00
62418;BME280;48456;54.242;10.280;2023-02-17T06:23:33;100825.19;;;7.56;100.00
62418;BME280;48456;54.242;10.280;2023-02-17T06:26:00;100815.59;;;7.58;100.00
62418;BME280;48456;54.242;10.280;2023-02-17T06:28:26;101068.28;;;7.54;100.00
62418;BME280;48456;54.242;10.280;2023-02-17T06:30:52;100909.44;;;7.54;100.00
62418;BME280;48456;54.242;10.280;2023-02-17T06:33:19;100833.09;;;7.56;100.00
62418;BME280;48456;54.242;10.280;2023-02-17T06:35:49;100779.59;;;7.55;100.00
62418;BME280;48456;54.242;10.280;2023-02-17T06:38:15;100758.50;;;7.53;100.00
62418;BME280;48456;54.242;10.280;2023-02-17T06:40:43;100748.88;;;7.54;100.00
62418;BME280;48456;54.242;10.280;2023-02-17T06:43:09;100730.44;;;7.56;100.00
62418;BME280;48456;54.242;10.280;2023-02-17T06:45:36;100716.44;;;7.57;100.00
62418;BME280;48456;54.242;10.280;2023-02-17T06:48:02;100707.63;;;7.56;100.00
62418;BME280;48456;54.242;10.280;2023-02-17T06:50:28;100690.94;;;7.56;100.00
62418;BME280;48456;54.242;10.280;2023-02-17T06:52:55;100687.47;;;7.57;100.00
62418;BME280;48456;54.242;10.280;2023-02-17T06:55:21;100675.16;;;7.57;100.00
62418;BME280;48456;54.242;10.280;2023-02-17T06:57:47;100670.78;;;7.58;100.00
62418;BME280;48456;54.242;10.280;2023-02-17T07:00:14;100669.03;;;7.58;100.00
62418;BME280;48456;54.242;10.280;2023-02-17T07:02:40;100656.75;;;7.59;100.00
62418;BME280;48456;54.242;10.280;2023-02-17T07:05:07;100656.75;;;7.59;100.00
62418;BME280;48456;54.242;10.280;2023-02-17T07:07:33;100654.13;;;7.59;100.00
62418;BME280;48456;54.242;10.280;2023-02-17T07:09:59;100641.84;;;7.59;100.00
62418;BME280;48456;54.242;10.280;2023-02-17T07:12:26;100641.84;;;7.59;100.00
62418;BME280;48456;54.242;10.280;2023-02-17T07:14:53;100637.47;;;7.61;100.00
62418;BME280;48456;54.242;10.280;2023-02-17T07:17:20;100641.00;;;7.63;100.00
62418;BME280;48456;54.242;10.280;2023-02-17T07:19:47;100636.59;;;7.65;100.00
62418;BME280;48456;54.242;10.280;2023-02-17T07:22:13;100644.50;;;7.67;100.00
62418;BME280;48456;54.242;10.280;2023-02-17T07:24:39;100618.19;;;7.65;100.00
62418;BME280;48456;54.242;10.280;2023-02-17T07:27:06;100616.44;;;7.66;100.00
62418;BME280;48456;54.242;10.280;2023-02-17T07:29:36;100605.00;;;7.65;100.00
62418;BME280;48456;54.242;10.280;2023-02-17T07:32:02;100575.19;;;7.65;100.00
62418;BME280;48456;54.242;10.280;2023-02-17T07:34:28;100571.69;;;7.66;100.00
62418;BME280;48456;54.242;10.280;2023-02-17T07:36:55;100567.28;;;7.66;100.00
62418;BME280;48456;54.242;10.280;2023-02-17T07:39:21;100552.38;;;7.67;100.00
62418;BME280;48456;54.242;10.280;2023-02-17T07:41:47;100521.66;;;7.66;100.00
62418;BME280;48456;54.242;10.280;2023-02-17T07:44:14;100519.03;;;7.66;100.00
62418;BME280;48456;54.242;10.280;2023-02-17T07:46:40;100516.41;;;7.67;100.00
62418;BME280;48456;54.242;10.280;2023-02-17T07:49:06;100515.50;;;7.67;100.00
62418;BME280;48456;54.242;10.280;2023-02-17T07:51:33;100891.13;;;7.68;100.00
62418;BME280;48456;54.242;10.280;2023-02-17T07:53:59;100887.63;;;7.67;100.00
62418;BME280;48456;54.242;10.280;2023-02-17T07:56:26;100887.63;;;7.67;100.00
62418;BME280;48456;54.242;10.280;2023-02-17T07:58:55;100876.22;;;7.67;100.00
62418;BME280;48456;54.242;10.280;2023-02-17T08:01:22;100869.22;;;7.67;100.00
62418;BME280;48456;54.242;10.280;2023-02-17T08:03:49;100862.16;;;7.66;100.00
62418;BME280;48456;54.242;10.280;2023-02-17T08:06:16;100859.50;;;7.66;100.00
62418;BME280;48456;54.242;10.280;2023-02-17T08:08:43;100838.47;;;7.68;100.00
62418;BME280;48456;54.242;10.280;2023-02-17T08:11:29;100834.97;;;7.67;100.00
62418;BME280;48456;54.242;10.280;2023-02-17T08:14:15;100826.19;;;7.67;100.00
62418;BME280;48456;54.242;10.280;2023-02-17T08:16:41;100818.28;;;7.67;100.00
62418;BME280;48456;54.242;10.280;2023-02-17T08:19:08;100826.19;;;7.67;100.00
62418;BME280;48456;54.242;10.280;2023-02-17T08:21:34;100815.63;;;7.65;100.00
62418;BME280;48456;54.242;10.280;2023-02-17T08:24:00;100810.38;;;7.65;100.00
62418;BME280;48456;54.242;10.280;2023-02-17T08:26:27;100808.63;;;7.64;100.00
62418;BME280;48456;54.242;10.280;2023-02-17T08:28:54;100798.97;;;7.65;100.00
62418;BME280;48456;54.242;10.280;2023-02-17T08:33:46;100777.00;;;7.61;100.00
62418;BME280;48456;54.242;10.280;2023-02-17T08:36:13;100771.75;;;7.63;100.00
62418;BME280;48456;54.242;10.280;2023-02-17T08:38:39;100763.84;;;7.64;100.00
62418;BME280;48456;54.242;10.280;2023-02-17T08:41:13;100762.97;;;7.65;100.00
62418;BME280;48456;54.242;10.280;2023-02-17T08:43:39;100751.59;;;7.65;100.00
62418;BME280;48456;54.242;10.280;2023-02-17T08:46:07;100754.22;;;7.65;100.00
62418;BME280;48456;54.242;10.280;2023-02-17T08:48:34;100748.09;;;7.67;100.00
62418;BME280;48456;54.242;10.280;2023-02-17T08:51:02;100722.63;;;7.68;100.00
62418;BME280;48456;54.242;10.280;2023-02-17T08:53:28;100708.59;;;7.67;100.00
62418;BME280;48456;54.242;10.280;2023-02-17T08:55:55;100700.75;;;7.77;100.00
62418;BME280;48456;54.242;10.280;2023-02-17T08:58:21;100702.53;;;7.83;100.00
62418;BME280;48456;54.242;10.280;2023-02-17T09:00:48;100716.56;;;7.83;100.00
62418;BME280;48456;54.242;10.280;2023-02-17T09:03:14;100717.47;;;7.84;100.00
62418;BME280;48456;54.242;10.280;2023-02-17T09:05:41;100700.69;;;7.71;100.00
62418;BME280;48456;54.242;10.280;2023-02-17T09:08:07;100717.50;;;7.88;100.00
62418;BME280;48456;54.242;10.280;2023-02-17T09:10:33;100723.63;;;7.87;100.00
62418;BME280;48456;54.242;10.280;2023-02-17T09:13:00;100719.22;;;7.85;100.00
62418;BME280;48456;54.242;10.280;2023-02-17T09:15:26;100720.13;;;7.87;100.00
62418;BME280;48456;54.242;10.280;2023-02-17T09:17:53;100739.41;;;7.84;100.00
62418;BME280;48456;54.242;10.280;2023-02-17T09:20:19;100737.63;;;7.83;100.00
62418;BME280;48456;54.242;10.280;2023-02-17T09:22:50;100726.22;;;7.86;100.00
62418;BME280;48456;54.242;10.280;2023-02-17T09:25:17;100734.16;;;7.87;100.00
62418;BME280;48456;54.242;10.280;2023-02-17T09:27:44;100720.09;;;7.90;100.00
62418;BME280;48456;54.242;10.280;2023-02-17T09:30:10;100726.28;;;7.90;100.00
62418;BME280;48456;54.242;10.280;2023-02-17T09:32:39;100706.94;;;7.91;100.00
62418;BME280;48456;54.242;10.280;2023-02-17T09:35:06;100673.56;;;7.87;100.00
62418;BME280;48456;54.242;10.280;2023-02-17T09:37:32;100660.47;;;7.97;100.00
62418;BME280;48456;54.242;10.280;2023-02-17T09:39:59;100663.09;;;7.95;100.00
62418;BME280;48456;54.242;10.280;2023-02-17T09:42:26;100642.00;;;7.92;100.00
62418;BME280;48456;54.242;10.280;2023-02-17T09:44:57;100579.63;;;7.82;100.00
62418;BME280;48456;54.242;10.280;2023-02-17T09:47:30;100648.09;;;7.85;100.00
62418;BME280;48456;54.242;10.280;2023-02-17T09:50:17;100681.53;;;7.93;100.00
62418;BME280;48456;54.242;10.280;2023-02-17T09:52:55;100682.41;;;8.00;100.00
62418;BME280;48456;54.242;10.280;2023-02-17T09:55:33;100667.41;;;7.80;100.00
62418;BME280;48456;54.242;10.280;2023-02-17T10:00:53;100643.75;;;7.91;100.00
62418;BME280;48456;54.242;10.280;2023-02-17T10:04:04;100656.09;;;8.02;100.00
62418;BME280;48456;54.242;10.280;2023-02-17T10:06:12;100666.63;;;8.03;100.00
62418;BME280;48456;54.242;10.280;2023-02-17T10:09:27;100667.50;;;7.99;100.00
62418;BME280;48456;54.242;10.280;2023-02-17T10:13:54;100659.56;;;8.01;100.00
62418;BME280;48456;54.242;10.280;2023-02-17T10:16:27;100645.53;;;8.05;100.00
62418;BME280;48456;54.242;10.280;2023-02-17T10:18:58;100630.59;;;8.02;100.00
62418;BME280;48456;54.242;10.280;2023-02-17T10:21:30;100653.47;;;8.08;100.00
62418;BME280;48456;54.242;10.280;2023-02-17T10:23:57;100652.59;;;8.09;100.00
62418;BME280;48456;54.242;10.280;2023-02-17T10:29:05;100668.44;;;8.22;100.00
62418;BME280;48456;54.242;10.280;2023-02-17T10:37:00;100652.63;;;8.18;100.00
62418;BME280;48456;54.242;10.280;2023-02-17T10:42:02;100640.34;;;8.21;100.00
62418;BME280;48456;54.242;10.280;2023-02-17T10:44:29;100620.97;;;8.09;100.00
62418;BME280;48456;54.242;10.280;2023-02-17T10:46:59;100614.00;;;8.24;100.00
62418;BME280;48456;54.242;10.280;2023-02-17T10:49:28;100632.47;;;8.27;100.00
62418;BME280;48456;54.242;10.280;2023-02-17T10:52:00;100631.56;;;8.25;100.00
62418;BME280;48456;54.242;10.280;2023-02-17T10:54:32;100638.59;;;8.27;100.00
62418;BME280;48456;54.242;10.280;2023-02-17T10:57:01;100633.34;;;8.30;100.00
62418;BME280;48456;54.242;10.280;2023-02-17T10:59:30;100647.41;;;8.29;100.00
62418;BME280;48456;54.242;10.280;2023-02-17T11:02:11;100637.72;;;8.24;100.00
62418;BME280;48456;54.242;10.280;2023-02-17T11:04:40;100602.59;;;8.26;100.00
62418;BME280;48456;54.242;10.280;2023-02-17T11:07:07;100640.38;;;8.27;100.00
62418;BME280;48456;54.242;10.280;2023-02-17T11:09:38;100628.06;;;8.30;100.00
62418;BME280;48456;54.242;10.280;2023-02-17T11:12:10;100629.81;;;8.30;100.00
62418;BME280;48456;54.242;10.280;2023-02-17T11:14:42;100622.78;;;8.30;100.00
62418;BME280;48456;54.242;10.280;2023-02-17T11:17:28;100628.94;;;8.34;100.00
62418;BME280;48456;54.242;10.280;2023-02-17T11:22:26;100637.75;;;8.45;100.00
62418;BME280;48456;54.242;10.280;2023-02-17T11:24:58;100605.25;;;8.47;100.00
62418;BME280;48456;54.242;10.280;2023-02-17T11:27:24;100612.31;;;8.54;100.00
62418;BME280;48456;54.242;10.280;2023-02-17T11:29:51;100613.13;;;8.43;100.00
62418;BME280;48456;54.242;10.280;2023-02-17T11:32:18;100591.25;;;8.57;100.00
62418;BME280;48456;54.242;10.280;2023-02-17T11:34:56;100580.66;;;8.52;100.00
62418;BME280;48456;54.242;10.280;2023-02-17T11:37:22;100591.25;;;8.55;100.00
62418;BME280;48456;54.242;10.280;2023-02-17T11:39:54;100593.81;;;8.51;100.00
62418;BME280;48456;54.242;10.280;2023-02-17T11:44:50;100585.94;;;8.46;100.00
62418;BME280;48456;54.242;10.280;2023-02-17T12:00:04;100602.66;;;8.61;100.00
62418;BME280;48456;54.242;10.280;2023-02-17T12:02:49;100574.47;;;8.52;100.00
62418;BME280;48456;54.242;10.280;2023-02-17T12:05:28;100588.59;;;8.63;100.00
62418;BME280;48456;54.242;10.280;2023-02-17T12:08:04;100580.69;;;8.57;100.00
62418;BME280;48456;54.242;10.280;2023-02-17T12:10:37;100578.06;;;8.58;100.00
62418;BME280;48456;54.242;10.280;2023-02-17T12:18:32;100561.34;;;8.66;100.00
62418;BME280;48456;54.242;10.280;2023-02-17T12:26:14;100587.69;;;8.50;100.00
62418;BME280;48456;54.242;10.280;2023-02-17T12:34:16;100595.59;;;8.50;100.00
62418;BME280;48456;54.242;10.280;2023-02-17T12:36:45;100596.50;;;8.55;100.00
62418;BME280;48456;54.242;10.280;2023-02-17T12:41:55;100563.06;;;8.50;100.00
62418;BME280;48456;54.242;10.280;2023-02-17T12:44:27;100562.25;;;8.58;100.00
62418;BME280;48456;54.242;10.280;2023-02-17T12:46:56;100584.22;;;8.53;100.00
62418;BME280;48456;54.242;10.280;2023-02-17T12:49:29;100570.16;;;8.58;100.00
62418;BME280;48456;54.242;10.280;2023-02-17T12:52:23;100577.16;;;8.80;100.00
62418;BME280;48456;54.242;10.280;2023-02-17T12:54:51;100553.44;;;8.69;100.00
62418;BME280;48456;54.242;10.280;2023-02-17T12:57:31;100554.28;;;8.85;100.00
62418;BME280;48456;54.242;10.280;2023-02-17T12:59:59;100542.00;;;8.81;100.00
62418;BME280;48456;54.242;10.280;2023-02-17T13:02:26;100549.03;;;8.66;100.00
62418;BME280;48456;54.242;10.280;2023-02-17T13:04:53;100564.88;;;8.54;100.00
62418;BME280;48456;54.242;10.280;2023-02-17T13:09:58;100549.88;;;8.37;100.00
62418;BME280;48456;54.242;10.280;2023-02-17T13:14:59;100582.38;;;8.41;100.00
62418;BME280;48456;54.242;10.280;2023-02-17T13:17:39;100428.66;;;8.15;100.00
62418;BME280;48456;54.242;10.280;2023-02-17T13:22:43;100574.50;;;8.44;100.00
62418;BME280;48456;54.242;10.280;2023-02-17T13:25:11;100571.00;;;8.51;100.00
62418;BME280;48456;54.242;10.280;2023-02-17T13:27:38;100580.69;;;8.63;100.00
62418;BME280;48456;54.242;10.280;2023-02-17T13:32:47;100575.41;;;8.62;100.00
62418;BME280;48456;54.242;10.280;2023-02-17T13:37:51;100592.13;;;8.54;100.00
62418;BME280;48456;54.242;10.280;2023-02-17T13:42:48;100574.47;;;8.42;100.00
62418;BME280;48456;54.242;10.280;2023-02-17T13:47:48;100582.38;;;8.27;100.00
62418;BME280;48456;54.242;10.280;2023-02-17T13:50:25;100576.22;;;8.28;100.00
62418;BME280;48456;54.242;10.280;2023-02-17T13:52:53;100559.50;;;8.15;100.00
62418;BME280;48456;54.242;10.280;2023-02-17T13:55:20;100550.72;;;8.08;100.00
62418;BME280;48456;54.242;10.280;2023-02-17T13:57:55;100603.44;;;8.17;100.00
62418;BME280;48456;54.242;10.280;2023-02-17T14:00:29;100555.13;;;8.14;100.00
62418;BME280;48456;54.242;10.280;2023-02-17T14:02:57;100563.03;;;8.14;100.00
62418;BME280;48456;54.242;10.280;2023-02-17T14:05:37;100598.13;;;8.06;100.00
62418;BME280;48456;54.242;10.280;2023-02-17T14:08:06;100572.69;;;8.16;100.00
62418;BME280;48456;54.242;10.280;2023-02-17T14:10:37;100593.78;;;8.12;100.00
62418;BME280;48456;54.242;10.280;2023-02-17T14:13:03;100556.00;;;8.10;100.00
62418;BME280;48456;54.242;10.280;2023-02-17T14:15:30;100556.88;;;8.07;100.00
62418;BME280;48456;54.242;10.280;2023-02-17T14:17:56;100594.63;;;8.01;100.00
62418;BME280;48456;54.242;10.280;2023-02-17T14:20:30;100560.38;;;8.01;100.00